createdAt,value
2022-08-20T00:02:16.592Z,65.04
2022-08-20T00:04:44.914Z,60.53
2022-08-20T00:07:14.845Z,55.74
2022-08-20T00:09:44.284Z,55.00
2022-08-20T00:12:16.104Z,57.62
2022-08-20T00:14:43.814Z,60.54
2022-08-20T00:17:11.860Z,67.34
2022-08-20T00:19:39.569Z,64.72
2022-08-20T00:22:07.680Z,62.19
2022-08-20T00:24:35.478Z,60.04
2022-08-20T00:27:03.596Z,56.04
2022-08-20T00:29:31.748Z,55.25
2022-08-20T00:32:00.246Z,58.39
2022-08-20T00:34:28.667Z,60.45
2022-08-20T00:36:56.440Z,66.27
2022-08-20T00:39:24.152Z,64.22
2022-08-20T00:41:52.191Z,60.15
2022-08-20T00:44:23.443Z,55.29
2022-08-20T00:46:53.921Z,54.86
2022-08-20T00:49:33.197Z,56.43
2022-08-20T00:52:12.766Z,58.40
2022-08-20T00:54:54.810Z,65.53
2022-08-20T00:57:56.754Z,64.88
2022-08-20T01:00:31.901Z,60.03
2022-08-20T01:03:00.862Z,55.14
2022-08-20T01:05:30.089Z,54.88
2022-08-20T01:07:58.734Z,57.36
2022-08-20T01:10:35.127Z,58.31
2022-08-20T01:13:10.074Z,62.24
2022-08-20T01:15:45.998Z,67.92
2022-08-20T01:18:24.518Z,63.25
2022-08-20T01:21:01.582Z,60.17
2022-08-20T01:23:51.047Z,54.81
2022-08-20T01:26:37.899Z,55.34
2022-08-20T01:29:14.932Z,57.35
2022-08-20T01:31:43.659Z,59.04
2022-08-20T01:34:17.562Z,65.08
2022-08-20T01:36:52.564Z,66.22
2022-08-20T01:39:33.770Z,62.07
2022-08-20T01:42:17.371Z,56.40
2022-08-20T01:44:47.101Z,57.38
2022-08-20T01:47:29.157Z,60.13
2022-08-20T01:50:02.820Z,67.19
2022-08-20T01:52:41.511Z,65.71
2022-08-20T01:55:10.587Z,60.51
2022-08-20T01:57:39.921Z,55.95
2022-08-20T02:00:20.224Z,56.04
2022-08-20T02:02:51.132Z,57.99
2022-08-20T02:05:20.568Z,58.32
2022-08-20T02:07:48.705Z,65.84
2022-08-20T02:10:19.277Z,67.04
2022-08-20T02:12:47.245Z,61.92
2022-08-20T02:15:16.252Z,56.28
2022-08-20T02:17:45.237Z,54.65
2022-08-20T02:20:20.523Z,57.61
2022-08-20T02:22:53.666Z,59.47
2022-08-20T02:25:28.252Z,65.98
2022-08-20T02:28:00.751Z,66.15
2022-08-20T02:30:36.642Z,61.07
2022-08-20T02:33:10.668Z,56.60
2022-08-20T02:35:42.914Z,55.97
2022-08-20T02:38:11.540Z,58.06
2022-08-20T02:40:41.064Z,61.47
2022-08-20T02:43:08.913Z,67.92
2022-08-20T02:45:38.530Z,66.91
2022-08-20T02:48:06.314Z,62.61
2022-08-20T02:50:34.557Z,60.06
2022-08-20T02:53:02.875Z,55.40
2022-08-20T02:55:30.556Z,55.53
2022-08-20T02:58:00.746Z,57.95
2022-08-20T03:00:38.100Z,60.11
2022-08-20T03:03:10.663Z,67.05
2022-08-20T03:05:42.486Z,65.23
2022-08-20T03:08:13.460Z,60.98
2022-08-20T03:10:44.150Z,56.45
2022-08-20T03:13:14.505Z,55.10
2022-08-20T03:15:59.111Z,58.93
2022-08-20T03:18:35.117Z,60.64
2022-08-20T03:21:05.891Z,68.71
2022-08-20T03:23:35.396Z,67.19
2022-08-20T03:26:08.396Z,62.33
2022-08-20T03:28:36.857Z,59.77
2022-08-20T03:31:05.386Z,55.55
2022-08-20T03:33:34.041Z,54.99
2022-08-20T03:36:02.026Z,56.56
2022-08-20T03:38:33.156Z,60.76
2022-08-20T03:41:03.130Z,67.58
2022-08-20T03:43:32.298Z,65.82
2022-08-20T03:46:00.550Z,62.38
2022-08-20T03:48:29.228Z,60.52
2022-08-20T03:50:58.657Z,56.50
2022-08-20T03:53:31.794Z,56.32
2022-08-20T03:56:04.622Z,59.44
2022-08-20T03:58:35.266Z,66.00
2022-08-20T04:01:07.281Z,65.43
2022-08-20T04:03:36.860Z,60.96
2022-08-20T04:06:04.845Z,56.93
2022-08-20T04:08:32.826Z,56.65
2022-08-20T04:11:01.446Z,58.03
2022-08-20T04:13:31.297Z,60.14
2022-08-20T04:16:04.720Z,66.66
2022-08-20T04:18:34.120Z,67.81
2022-08-20T04:21:01.839Z,64.35
2022-08-20T04:23:31.404Z,60.05
2022-08-20T04:26:00.950Z,56.24
2022-08-20T04:28:28.830Z,57.93
2022-08-20T04:31:01.078Z,59.81
2022-08-20T04:33:34.051Z,64.63
2022-08-20T04:36:06.313Z,66.08
2022-08-20T04:38:47.777Z,61.59
2022-08-20T04:41:23.669Z,57.11
2022-08-20T04:43:56.586Z,56.68
2022-08-20T04:46:28.082Z,60.13
2022-08-20T04:48:57.653Z,66.34
2022-08-20T04:51:26.888Z,65.50
2022-08-20T04:53:57.453Z,61.07
2022-08-20T04:56:29.521Z,57.23
2022-08-20T04:59:01.666Z,56.35
2022-08-20T05:01:29.973Z,58.87
2022-08-20T05:03:59.112Z,66.16
2022-08-20T05:06:31.860Z,67.66
2022-08-20T05:09:00.953Z,63.22
2022-08-20T05:11:34.053Z,60.49
2022-08-20T05:14:11.421Z,56.78
2022-08-20T05:16:40.772Z,57.23
2022-08-20T05:19:13.162Z,58.93
2022-08-20T05:21:41.828Z,61.10
2022-08-20T05:24:11.425Z,68.11
2022-08-20T05:26:39.181Z,66.15
2022-08-20T05:29:07.569Z,61.79
2022-08-20T05:31:35.882Z,57.23
2022-08-20T05:34:12.265Z,56.28
2022-08-20T05:36:49.355Z,59.03
2022-08-20T05:39:21.450Z,66.77
2022-08-20T05:41:50.977Z,63.86
2022-08-20T05:44:19.764Z,59.84
2022-08-20T05:46:48.732Z,55.54
2022-08-20T05:49:21.401Z,55.26
2022-08-20T05:51:53.776Z,58.78
2022-08-20T05:54:24.122Z,60.65
2022-08-20T05:56:51.810Z,67.22
2022-08-20T05:59:24.143Z,66.88
2022-08-20T06:01:53.157Z,62.04
2022-08-20T06:04:28.102Z,56.72
2022-08-20T06:07:09.185Z,56.15
2022-08-20T06:09:36.962Z,58.84
2022-08-20T06:12:09.026Z,60.79
2022-08-20T06:14:37.440Z,65.72
2022-08-20T06:17:13.413Z,65.92
2022-08-20T06:19:44.426Z,62.69
2022-08-20T06:22:19.467Z,59.85
2022-08-20T06:24:52.353Z,55.69
2022-08-20T06:27:21.066Z,55.87
2022-08-20T06:29:50.272Z,56.74
2022-08-20T06:32:28.861Z,58.95
2022-08-20T06:35:07.317Z,66.21
2022-08-20T06:37:38.489Z,65.58
2022-08-20T06:40:17.471Z,61.34
2022-08-20T06:42:48.802Z,58.72
2022-08-20T06:45:26.590Z,55.21
2022-08-20T06:47:58.662Z,57.71
2022-08-20T06:50:43.186Z,58.82
2022-08-20T06:53:20.645Z,65.83
2022-08-20T06:55:54.646Z,64.28
2022-08-20T06:58:35.614Z,58.64
2022-08-20T07:01:10.331Z,56.87
2022-08-20T07:03:55.096Z,58.25
2022-08-20T07:06:26.790Z,60.50
2022-08-20T07:08:55.881Z,66.41
2022-08-20T07:11:28.224Z,64.73
2022-08-20T07:13:58.535Z,61.48
2022-08-20T07:16:27.677Z,56.44
2022-08-20T07:18:55.482Z,55.78
2022-08-20T07:21:24.425Z,57.86
2022-08-20T07:23:53.147Z,59.74
2022-08-20T07:26:20.893Z,64.17
2022-08-20T07:28:49.748Z,63.49
2022-08-20T07:31:36.295Z,59.31
2022-08-20T07:34:05.377Z,57.64
2022-08-20T07:36:34.670Z,58.80
2022-08-20T07:39:05.884Z,60.77
2022-08-20T07:41:34.238Z,65.91
2022-08-20T07:44:02.730Z,64.01
2022-08-20T07:46:31.844Z,60.24
2022-08-20T07:49:00.255Z,56.05
2022-08-20T07:51:28.737Z,57.45
2022-08-20T07:53:58.446Z,58.41
2022-08-20T07:56:26.686Z,61.87
2022-08-20T07:58:59.083Z,63.25
2022-08-20T08:01:31.652Z,61.17
2022-08-20T08:04:01.391Z,57.75
2022-08-20T08:06:31.944Z,58.80
2022-08-20T08:09:09.801Z,61.26
2022-08-20T08:11:47.526Z,63.79
2022-08-20T08:14:23.763Z,61.39
2022-08-20T08:16:55.324Z,56.70
2022-08-20T08:19:26.827Z,57.77
2022-08-20T08:21:58.701Z,58.25
2022-08-20T08:24:28.507Z,60.38
2022-08-20T08:26:56.568Z,59.98
2022-08-20T08:29:24.299Z,64.67
2022-08-20T08:31:52.381Z,62.65
2022-08-20T08:34:20.343Z,54.71
2022-08-20T08:36:48.320Z,53.70
2022-08-20T08:39:16.309Z,54.97
2022-08-20T08:41:49.989Z,57.47
2022-08-20T08:44:24.839Z,58.39
2022-08-20T08:47:29.822Z,57.26
2022-08-20T08:49:58.447Z,60.12
2022-08-20T08:52:35.311Z,60.99
2022-08-20T08:55:13.248Z,63.58
2022-08-20T08:57:41.567Z,58.86
2022-08-20T09:00:17.715Z,55.61
2022-08-20T09:03:11.020Z,57.53
2022-08-20T09:05:50.745Z,59.14
2022-08-20T09:08:41.788Z,59.45
2022-08-20T09:11:10.079Z,60.92
2022-08-20T09:13:37.828Z,60.46
2022-08-20T09:16:06.004Z,61.07
2022-08-20T09:18:33.760Z,64.27
2022-08-20T09:21:01.865Z,60.22
2022-08-20T09:23:29.601Z,55.01
2022-08-20T09:25:58.447Z,54.16
2022-08-20T09:28:32.324Z,55.81
2022-08-20T09:31:04.457Z,56.65
2022-08-20T09:33:33.291Z,56.75
2022-08-20T09:36:01.220Z,56.83
2022-08-20T09:38:29.033Z,57.52
2022-08-20T09:40:56.820Z,57.97
2022-08-20T09:43:24.621Z,58.40
2022-08-20T09:45:52.674Z,58.85
2022-08-20T09:48:32.093Z,58.77
2022-08-20T09:51:01.342Z,58.74
2022-08-20T09:53:30.604Z,58.27
2022-08-20T09:56:00.258Z,57.71
2022-08-20T09:58:49.787Z,58.46
2022-08-20T10:01:21.325Z,58.17
2022-08-20T10:03:51.032Z,58.13
2022-08-20T10:06:20.548Z,58.28
2022-08-20T10:08:49.827Z,57.79
2022-08-20T10:11:18.391Z,57.88
2022-08-20T10:13:46.200Z,58.09
2022-08-20T10:16:14.020Z,57.74
2022-08-20T10:18:42.032Z,58.26
2022-08-20T10:21:13.033Z,58.37
2022-08-20T10:23:41.375Z,58.19
2022-08-20T10:26:11.875Z,57.90
2022-08-20T10:28:40.017Z,57.62
2022-08-20T10:31:11.093Z,57.36
2022-08-20T10:33:41.782Z,57.14
2022-08-20T10:36:15.698Z,57.39
2022-08-20T10:38:45.256Z,57.03
2022-08-20T10:41:13.180Z,56.77
2022-08-20T10:43:40.889Z,56.88
2022-08-20T10:46:09.485Z,57.02
2022-08-20T10:48:38.109Z,56.94
2022-08-20T10:51:06.482Z,56.56
2022-08-20T10:53:35.233Z,56.87
2022-08-20T10:56:03.197Z,56.90
2022-08-20T10:58:39.306Z,57.33
2022-08-20T11:01:08.453Z,57.02
2022-08-20T11:03:36.588Z,57.11
2022-08-20T11:06:04.853Z,57.65
2022-08-20T11:08:33.455Z,57.53
2022-08-20T11:11:02.806Z,57.62
2022-08-20T11:13:30.527Z,57.32
2022-08-20T11:15:58.369Z,57.79
2022-08-20T11:18:26.058Z,58.16
2022-08-20T11:20:53.830Z,58.24
2022-08-20T11:23:22.283Z,58.68
2022-08-20T11:25:50.822Z,58.17
2022-08-20T11:28:31.086Z,57.85
2022-08-20T11:31:01.982Z,58.12
2022-08-20T11:33:30.102Z,57.96
2022-08-20T11:35:58.231Z,57.99
2022-08-20T11:38:26.923Z,58.25
2022-08-20T11:40:54.832Z,58.22
2022-08-20T11:43:22.525Z,58.33
2022-08-20T11:45:55.374Z,58.56
2022-08-20T11:48:23.177Z,58.80
2022-08-20T11:50:51.132Z,58.41
2022-08-20T11:53:18.889Z,57.87
2022-08-20T11:55:47.885Z,57.99
2022-08-20T11:58:15.750Z,58.11
2022-08-20T12:00:43.485Z,57.86
2022-08-20T12:03:12.923Z,58.38
2022-08-20T12:05:45.128Z,58.79
2022-08-20T12:08:25.327Z,59.08
2022-08-20T12:11:00.554Z,58.70
2022-08-20T12:13:47.923Z,58.31
2022-08-20T12:16:18.769Z,58.62
2022-08-20T12:18:48.360Z,58.39
2022-08-20T12:21:17.185Z,58.54
2022-08-20T12:23:45.638Z,58.49
2022-08-20T12:26:19.097Z,58.66
2022-08-20T12:28:47.212Z,58.42
2022-08-20T12:31:14.985Z,58.03
2022-08-20T12:33:42.722Z,58.00
2022-08-20T12:36:11.110Z,58.72
2022-08-20T12:38:38.801Z,58.71
2022-08-20T12:41:07.469Z,58.44
2022-08-20T12:43:35.259Z,58.29
2022-08-20T12:46:02.946Z,58.06
2022-08-20T12:48:30.689Z,58.23
2022-08-20T12:50:58.565Z,58.26
2022-08-20T12:53:26.291Z,57.65
2022-08-20T12:55:54.072Z,57.87
2022-08-20T12:58:21.829Z,58.21
2022-08-20T13:00:51.137Z,57.92
2022-08-20T13:03:20.964Z,57.60
2022-08-20T13:05:50.044Z,57.58
2022-08-20T13:08:19.535Z,57.10
2022-08-20T13:10:47.904Z,56.79
2022-08-20T13:13:20.207Z,56.41
2022-08-20T13:15:51.568Z,56.50
2022-08-20T13:18:21.046Z,56.79
2022-08-20T13:20:49.775Z,56.77
2022-08-20T13:23:17.734Z,56.88
2022-08-20T13:25:45.890Z,56.82
2022-08-20T13:28:13.963Z,56.75
2022-08-20T13:30:41.744Z,56.06
2022-08-20T13:33:09.593Z,55.20
2022-08-20T13:35:37.296Z,55.26
2022-08-20T13:38:05.029Z,55.51
2022-08-20T13:40:33.113Z,54.70
2022-08-20T13:43:06.010Z,54.76
2022-08-20T13:45:36.992Z,54.78
2022-08-20T13:48:09.080Z,54.57
2022-08-20T13:50:46.791Z,53.76
2022-08-20T13:53:16.154Z,53.59
2022-08-20T13:55:46.445Z,53.52
2022-08-20T13:58:14.268Z,53.37
2022-08-20T14:00:42.446Z,52.53
2022-08-20T14:03:11.390Z,52.03
2022-08-20T14:05:39.616Z,51.13
2022-08-20T14:08:20.304Z,51.39
2022-08-20T14:10:51.534Z,50.71
2022-08-20T14:13:23.146Z,51.20
2022-08-20T14:15:51.591Z,50.52
2022-08-20T14:18:20.048Z,50.45
2022-08-20T14:20:48.426Z,49.98
2022-08-20T14:23:16.417Z,46.38
2022-08-20T14:25:47.853Z,42.59
2022-08-20T14:28:21.694Z,42.99
2022-08-20T14:30:53.507Z,43.99
2022-08-20T14:33:25.702Z,43.36
2022-08-20T14:35:53.983Z,42.28
2022-08-20T14:38:21.963Z,41.19
2022-08-20T14:40:50.669Z,37.99
2022-08-20T14:43:19.482Z,37.43
2022-08-20T14:45:47.301Z,38.38
2022-08-20T14:48:15.464Z,38.04
2022-08-20T14:50:43.600Z,38.10
2022-08-20T14:53:11.265Z,37.71
2022-08-20T14:55:39.364Z,36.76
2022-08-20T14:58:11.198Z,35.26
2022-08-20T15:00:40.647Z,33.89
2022-08-20T15:03:08.439Z,34.52
2022-08-20T15:05:39.510Z,34.84
2022-08-20T15:08:10.805Z,35.06
2022-08-20T15:10:39.963Z,34.12
2022-08-20T15:13:09.211Z,34.36
2022-08-20T15:15:37.607Z,35.14
2022-08-20T15:18:06.270Z,33.12
2022-08-20T15:20:36.509Z,32.49
2022-08-20T15:23:06.223Z,32.59
2022-08-20T15:25:37.679Z,32.05
2022-08-20T15:28:09.883Z,30.06
2022-08-20T15:30:41.538Z,30.59
2022-08-20T15:33:11.663Z,29.87
2022-08-20T15:35:39.564Z,30.27
2022-08-20T15:38:08.172Z,30.76
2022-08-20T15:40:36.689Z,30.79
2022-08-20T15:43:05.875Z,30.18
2022-08-20T15:45:35.459Z,31.00
2022-08-20T15:48:13.024Z,31.82
2022-08-20T15:51:22.553Z,32.66
2022-08-20T15:54:09.027Z,32.48
2022-08-20T15:57:09.515Z,31.90
2022-08-20T15:59:55.842Z,31.02
2022-08-20T16:02:37.690Z,31.78
2022-08-20T16:05:17.442Z,30.51
2022-08-20T16:08:34.798Z,30.63
2022-08-20T16:11:53.477Z,32.11
2022-08-20T16:14:34.355Z,29.61
2022-08-20T16:17:09.062Z,30.86
2022-08-20T16:19:55.122Z,31.00
2022-08-20T16:22:24.234Z,31.40
2022-08-20T16:24:51.949Z,31.59
2022-08-20T16:27:28.820Z,31.82
2022-08-20T16:30:20.634Z,31.72
2022-08-20T16:33:12.206Z,31.59
2022-08-20T16:35:58.346Z,31.73
2022-08-20T16:39:02.713Z,32.42
2022-08-20T16:41:48.326Z,31.98
2022-08-20T16:44:32.594Z,31.82
2022-08-20T16:47:16.833Z,31.24
2022-08-20T16:50:08.802Z,31.04
2022-08-20T16:52:36.896Z,30.99
2022-08-20T16:55:05.036Z,30.97
2022-08-20T16:57:32.926Z,31.74
2022-08-20T17:00:26.234Z,32.18
2022-08-20T17:03:01.285Z,32.40
2022-08-20T17:05:47.587Z,32.46
2022-08-20T17:08:25.523Z,32.01
2022-08-20T17:11:11.631Z,31.98
2022-08-20T17:13:44.946Z,31.78
2022-08-20T17:16:13.061Z,32.37
2022-08-20T17:18:45.505Z,32.00
2022-08-20T17:21:32.894Z,32.39
2022-08-20T17:24:16.472Z,32.29
2022-08-20T17:27:15.364Z,32.92
2022-08-20T17:30:03.545Z,33.61
2022-08-20T17:32:31.543Z,33.17
2022-08-20T17:35:07.933Z,33.05
2022-08-20T17:37:42.060Z,33.19
2022-08-20T17:40:46.059Z,33.19
2022-08-20T17:43:33.982Z,33.94
2022-08-20T17:46:11.279Z,33.28
2022-08-20T17:48:45.666Z,34.42
2022-08-20T17:51:22.344Z,34.83
2022-08-20T17:53:57.718Z,34.77
2022-08-20T17:56:40.915Z,34.57
2022-08-20T17:59:59.496Z,34.77
2022-08-20T18:02:12.285Z,35.65
2022-08-20T18:04:40.350Z,35.44
2022-08-20T18:07:11.025Z,35.83
2022-08-20T18:10:02.536Z,35.78
2022-08-20T18:12:59.829Z,36.07
2022-08-20T18:15:35.128Z,36.02
2022-08-20T18:18:25.300Z,36.25
2022-08-20T18:21:11.154Z,35.70
2022-08-20T18:23:47.660Z,36.13
2022-08-20T18:26:32.102Z,36.02
2022-08-20T18:29:11.152Z,36.31
2022-08-20T18:32:05.547Z,36.68
2022-08-20T18:34:33.114Z,36.82
2022-08-20T18:37:07.025Z,36.74
2022-08-20T18:39:43.479Z,37.19
2022-08-20T18:42:32.898Z,38.04
2022-08-20T18:45:02.024Z,38.28
2022-08-20T18:47:45.198Z,38.14
2022-08-20T18:50:16.587Z,38.69
2022-08-20T18:52:53.327Z,39.21
2022-08-20T18:55:36.939Z,39.63
2022-08-20T18:58:11.497Z,39.65
2022-08-20T19:00:49.644Z,40.06
2022-08-20T19:03:47.806Z,39.99
2022-08-20T19:06:15.645Z,40.12
2022-08-20T19:08:56.506Z,40.63
2022-08-20T19:11:51.958Z,40.14
2022-08-20T19:15:17.665Z,41.01
2022-08-20T19:18:03.374Z,40.50
2022-08-20T19:20:35.925Z,40.74
2022-08-20T19:23:14.810Z,41.24
2022-08-20T19:25:55.038Z,41.03
2022-08-20T19:28:41.286Z,41.15
2022-08-20T19:31:22.590Z,41.39
2022-08-20T19:34:03.802Z,41.44
2022-08-20T19:37:27.796Z,41.63
2022-08-20T19:39:56.557Z,43.06
2022-08-20T19:42:29.635Z,43.35
2022-08-20T19:45:18.837Z,43.66
2022-08-20T19:48:03.357Z,44.12
2022-08-20T19:51:04.633Z,44.82
2022-08-20T19:53:36.957Z,44.39
2022-08-20T19:56:19.821Z,44.80
2022-08-20T19:59:09.995Z,45.33
2022-08-20T20:01:37.811Z,45.83
2022-08-20T20:04:17.986Z,45.72
2022-08-20T20:06:48.987Z,45.64
2022-08-20T20:09:24.875Z,46.36
2022-08-20T20:12:22.432Z,46.73
2022-08-20T20:14:54.022Z,46.95
2022-08-20T20:17:29.413Z,47.02
2022-08-20T20:20:02.455Z,47.60
2022-08-20T20:22:35.696Z,47.98
2022-08-20T20:25:33.963Z,48.11
2022-08-20T20:28:29.019Z,47.04
2022-08-20T20:31:14.008Z,46.63
2022-08-20T20:33:44.387Z,47.32
2022-08-20T20:36:18.110Z,47.18
2022-08-20T20:39:04.600Z,46.66
2022-08-20T20:41:35.962Z,46.47
2022-08-20T20:44:24.401Z,46.68
2022-08-20T20:47:00.367Z,46.85
2022-08-20T20:49:54.962Z,46.80
2022-08-20T20:52:37.213Z,46.99
2022-08-20T20:55:12.291Z,47.00
2022-08-20T20:57:41.087Z,47.11
2022-08-20T21:00:14.228Z,47.20
2022-08-20T21:02:42.977Z,47.14
2022-08-20T21:05:14.214Z,46.97
2022-08-20T21:08:02.322Z,48.02
2022-08-20T21:10:38.090Z,47.96
2022-08-20T21:13:08.651Z,48.75
2022-08-20T21:15:39.031Z,49.13
2022-08-20T21:18:09.207Z,49.63
2022-08-20T21:20:37.706Z,51.40
2022-08-20T21:23:06.339Z,50.62
2022-08-20T21:25:36.284Z,50.47
2022-08-20T21:28:04.824Z,50.23
2022-08-20T21:30:33.721Z,50.76
2022-08-20T21:33:01.574Z,50.69
2022-08-20T21:35:29.642Z,50.99
2022-08-20T21:37:57.509Z,51.36
2022-08-20T21:40:28.190Z,51.84
2022-08-20T21:42:56.707Z,53.29
2022-08-20T21:45:28.498Z,53.41
2022-08-20T21:47:58.709Z,54.37
2022-08-20T21:50:27.219Z,53.71
2022-08-20T21:52:58.011Z,55.08
2022-08-20T21:55:39.297Z,57.64
2022-08-20T21:58:09.345Z,56.03
2022-08-20T22:01:05.499Z,56.08
2022-08-20T22:03:38.948Z,57.20
2022-08-20T22:06:13.025Z,56.47
2022-08-20T22:08:41.486Z,55.67
2022-08-20T22:11:12.217Z,55.59
2022-08-20T22:13:41.189Z,56.04
2022-08-20T22:16:12.477Z,56.13
2022-08-20T22:18:41.372Z,56.20
2022-08-20T22:21:17.292Z,56.20
2022-08-20T22:23:45.519Z,55.66
2022-08-20T22:26:17.424Z,56.45
2022-08-20T22:28:51.157Z,56.01
2022-08-20T22:31:26.739Z,57.62
2022-08-20T22:33:56.941Z,57.91
2022-08-20T22:36:25.909Z,58.60
2022-08-20T22:38:55.615Z,57.81
2022-08-20T22:41:23.777Z,57.18
2022-08-20T22:43:55.777Z,57.76
2022-08-20T22:46:28.562Z,59.08
2022-08-20T22:48:57.538Z,59.23
2022-08-20T22:51:38.864Z,59.37
2022-08-20T22:54:15.606Z,60.24
2022-08-20T22:56:43.418Z,61.48
2022-08-20T22:59:11.606Z,71.07
2022-08-20T23:01:39.649Z,70.50
2022-08-20T23:04:19.437Z,55.92
2022-08-20T23:06:47.980Z,52.39
2022-08-20T23:09:15.998Z,53.56
2022-08-20T23:11:50.008Z,53.79
2022-08-20T23:14:18.041Z,55.68
2022-08-20T23:16:52.611Z,56.63
2022-08-20T23:19:22.706Z,57.39
2022-08-20T23:21:52.063Z,58.19
2022-08-20T23:24:20.229Z,58.57
2022-08-20T23:26:53.080Z,59.74
2022-08-20T23:29:25.809Z,60.45
2022-08-20T23:31:56.890Z,61.51
2022-08-20T23:34:26.396Z,61.21
2022-08-20T23:36:57.602Z,69.80
2022-08-20T23:39:27.174Z,59.52
2022-08-20T23:41:55.837Z,52.80
2022-08-20T23:44:25.702Z,53.35
2022-08-20T23:47:02.615Z,54.15
2022-08-20T23:49:32.263Z,56.52
2022-08-20T23:52:00.812Z,57.38
2022-08-20T23:54:32.081Z,57.94
2022-08-20T23:57:00.297Z,58.12
2022-08-20T23:59:28.326Z,59.04
